Terminal Aerodrome Forecast
Issued by NWS

Home | Current Version | Previous Version | Text Only | Print | Product List | Glossary On
Versions: 1 2 3 4 5 6 7 8 9 10 11 12 13 14 15 16 17 18 19 20 21 22 23 24
000
FTUS43 KLOT 110911 AAA
TAFMDW
TAF AMD
KMDW 110911Z 1109/1206 14010KT 1SM -SN BR FEW008 SCT012 OVC020
      TEMPO 1109/1112 3/4SM -SN OVC012
     FM111300 16012G18KT 1 1/2SM -SN BR SCT007 OVC012
     FM111700 18012G18KT 1SM -SN BR OVC007
     FM111900 19012KT 3/4SM -SN BR OVC004
      TEMPO 1119/1123 1/4SM +SN VV003
     FM120200 23010KT 5SM -SN BKN008 OVC015=

USA.gov is the U.S. government's official web portal to all federal, state and local government web resources and services.